sensor_id;sensor_type;location;lat;lon;timestamp;P1;durP1;ratioP1;P2;durP2;ratioP2
75810;SDS011;64449;50.016;19.954;2024-01-11T00:02:13;75.00;;;29.60;;
75810;SDS011;64449;50.016;19.954;2024-01-11T00:04:39;83.70;;;30.90;;
75810;SDS011;64449;50.016;19.954;2024-01-11T00:07:05;67.90;;;26.20;;
75810;SDS011;64449;50.016;19.954;2024-01-11T00:09:31;99.90;;;37.40;;
75810;SDS011;64449;50.016;19.954;2024-01-11T00:11:56;110.20;;;43.60;;
75810;SDS011;64449;50.016;19.954;2024-01-11T00:14:21;94.40;;;32.40;;
75810;SDS011;64449;50.016;19.954;2024-01-11T00:16:47;90.50;;;31.60;;
75810;SDS011;64449;50.016;19.954;2024-01-11T00:19:12;75.90;;;28.10;;
75810;SDS011;64449;50.016;19.954;2024-01-11T00:21:37;79.60;;;28.50;;
75810;SDS011;64449;50.016;19.954;2024-01-11T00:24:03;69.10;;;27.90;;
75810;SDS011;64449;50.016;19.954;2024-01-11T00:26:28;114.40;;;43.70;;
75810;SDS011;64449;50.016;19.954;2024-01-11T00:28:54;99.70;;;37.20;;
75810;SDS011;64449;50.016;19.954;2024-01-11T00:31:19;77.70;;;32.10;;
75810;SDS011;64449;50.016;19.954;2024-01-11T00:33:44;72.30;;;26.00;;
75810;SDS011;64449;50.016;19.954;2024-01-11T00:36:10;97.80;;;38.70;;
75810;SDS011;64449;50.016;19.954;2024-01-11T00:38:35;86.80;;;31.70;;
75810;SDS011;64449;50.016;19.954;2024-01-11T00:41:00;98.20;;;37.60;;
75810;SDS011;64449;50.016;19.954;2024-01-11T00:43:26;82.20;;;28.60;;
75810;SDS011;64449;50.016;19.954;2024-01-11T00:45:51;110.10;;;42.60;;
75810;SDS011;64449;50.016;19.954;2024-01-11T00:48:17;106.90;;;41.90;;
75810;SDS011;64449;50.016;19.954;2024-01-11T00:50:42;114.60;;;41.50;;
75810;SDS011;64449;50.016;19.954;2024-01-11T00:53:07;101.20;;;38.60;;
75810;SDS011;64449;50.016;19.954;2024-01-11T00:55:34;61.70;;;24.80;;
75810;SDS011;64449;50.016;19.954;2024-01-11T00:57:59;98.50;;;38.70;;
75810;SDS011;64449;50.016;19.954;2024-01-11T01:00:25;132.50;;;57.10;;
75810;SDS011;64449;50.016;19.954;2024-01-11T01:02:51;100.10;;;41.30;;
75810;SDS011;64449;50.016;19.954;2024-01-11T01:05:16;111.10;;;42.00;;
75810;SDS011;64449;50.016;19.954;2024-01-11T01:07:41;100.00;;;39.10;;
75810;SDS011;64449;50.016;19.954;2024-01-11T01:10:07;93.00;;;31.60;;
75810;SDS011;64449;50.016;19.954;2024-01-11T01:12:33;116.30;;;48.80;;
75810;SDS011;64449;50.016;19.954;2024-01-11T01:14:59;79.00;;;32.90;;
75810;SDS011;64449;50.016;19.954;2024-01-11T01:17:24;102.90;;;40.80;;
75810;SDS011;64449;50.016;19.954;2024-01-11T01:19:50;92.80;;;35.70;;
75810;SDS011;64449;50.016;19.954;2024-01-11T01:22:15;140.10;;;50.60;;
75810;SDS011;64449;50.016;19.954;2024-01-11T01:24:40;100.20;;;40.00;;
75810;SDS011;64449;50.016;19.954;2024-01-11T01:27:06;155.00;;;64.70;;
75810;SDS011;64449;50.016;19.954;2024-01-11T01:29:31;144.20;;;63.00;;
75810;SDS011;64449;50.016;19.954;2024-01-11T01:31:56;71.70;;;28.70;;
75810;SDS011;64449;50.016;19.954;2024-01-11T01:34:22;89.90;;;36.20;;
75810;SDS011;64449;50.016;19.954;2024-01-11T01:36:47;83.80;;;32.40;;
75810;SDS011;64449;50.016;19.954;2024-01-11T01:39:12;151.70;;;61.40;;
75810;SDS011;64449;50.016;19.954;2024-01-11T01:41:38;143.40;;;52.30;;
75810;SDS011;64449;50.016;19.954;2024-01-11T01:44:03;122.60;;;48.70;;
75810;SDS011;64449;50.016;19.954;2024-01-11T01:46:29;85.80;;;33.80;;
75810;SDS011;64449;50.016;19.954;2024-01-11T01:48:56;93.90;;;34.80;;
75810;SDS011;64449;50.016;19.954;2024-01-11T01:51:23;70.70;;;28.30;;
75810;SDS011;64449;50.016;19.954;2024-01-11T01:53:52;67.40;;;29.60;;
75810;SDS011;64449;50.016;19.954;2024-01-11T01:56:19;115.50;;;44.70;;
75810;SDS011;64449;50.016;19.954;2024-01-11T01:58:46;85.80;;;34.10;;
75810;SDS011;64449;50.016;19.954;2024-01-11T02:01:15;103.80;;;35.90;;
75810;SDS011;64449;50.016;19.954;2024-01-11T02:03:41;106.30;;;42.80;;
75810;SDS011;64449;50.016;19.954;2024-01-11T02:06:08;119.50;;;45.90;;
75810;SDS011;64449;50.016;19.954;2024-01-11T02:08:34;108.90;;;45.00;;
75810;SDS011;64449;50.016;19.954;2024-01-11T02:10:59;107.80;;;43.60;;
75810;SDS011;64449;50.016;19.954;2024-01-11T02:13:26;98.70;;;40.30;;
75810;SDS011;64449;50.016;19.954;2024-01-11T02:15:51;88.90;;;33.40;;
75810;SDS011;64449;50.016;19.954;2024-01-11T02:18:17;102.10;;;39.10;;
75810;SDS011;64449;50.016;19.954;2024-01-11T02:20:42;102.30;;;35.70;;
75810;SDS011;64449;50.016;19.954;2024-01-11T02:23:10;78.80;;;28.30;;
75810;SDS011;64449;50.016;19.954;2024-01-11T02:25:39;78.40;;;30.30;;
75810;SDS011;64449;50.016;19.954;2024-01-11T02:28:05;32.00;;;15.40;;
75810;SDS011;64449;50.016;19.954;2024-01-11T02:30:31;84.20;;;32.00;;
75810;SDS011;64449;50.016;19.954;2024-01-11T02:32:56;49.80;;;19.60;;
75810;SDS011;64449;50.016;19.954;2024-01-11T02:37:49;52.10;;;21.00;;
75810;SDS011;64449;50.016;19.954;2024-01-11T02:40:15;61.50;;;24.60;;
75810;SDS011;64449;50.016;19.954;2024-01-11T02:42:41;80.90;;;29.60;;
75810;SDS011;64449;50.016;19.954;2024-01-11T02:45:06;104.10;;;42.90;;
75810;SDS011;64449;50.016;19.954;2024-01-11T02:47:32;68.60;;;27.00;;
75810;SDS011;64449;50.016;19.954;2024-01-11T02:49:57;95.20;;;36.20;;
75810;SDS011;64449;50.016;19.954;2024-01-11T02:52:23;76.40;;;29.10;;
75810;SDS011;64449;50.016;19.954;2024-01-11T02:54:49;74.80;;;26.30;;
75810;SDS011;64449;50.016;19.954;2024-01-11T02:57:14;82.70;;;33.60;;
75810;SDS011;64449;50.016;19.954;2024-01-11T02:59:40;125.80;;;48.40;;
75810;SDS011;64449;50.016;19.954;2024-01-11T03:02:07;99.80;;;37.60;;
75810;SDS011;64449;50.016;19.954;2024-01-11T03:04:32;83.00;;;35.20;;
75810;SDS011;64449;50.016;19.954;2024-01-11T03:06:57;74.50;;;30.80;;
75810;SDS011;64449;50.016;19.954;2024-01-11T03:09:23;76.50;;;29.20;;
75810;SDS011;64449;50.016;19.954;2024-01-11T03:11:48;127.20;;;47.10;;
75810;SDS011;64449;50.016;19.954;2024-01-11T03:14:14;133.60;;;53.40;;
75810;SDS011;64449;50.016;19.954;2024-01-11T03:16:39;104.00;;;41.90;;
75810;SDS011;64449;50.016;19.954;2024-01-11T03:19:05;67.70;;;26.90;;
75810;SDS011;64449;50.016;19.954;2024-01-11T03:21:31;74.70;;;31.90;;
75810;SDS011;64449;50.016;19.954;2024-01-11T03:23:56;72.70;;;28.50;;
75810;SDS011;64449;50.016;19.954;2024-01-11T03:26:22;51.90;;;22.00;;
75810;SDS011;64449;50.016;19.954;2024-01-11T03:28:47;103.50;;;44.40;;
75810;SDS011;64449;50.016;19.954;2024-01-11T03:31:13;103.30;;;43.40;;
75810;SDS011;64449;50.016;19.954;2024-01-11T03:33:38;85.60;;;32.00;;
75810;SDS011;64449;50.016;19.954;2024-01-11T03:36:07;91.40;;;34.80;;
75810;SDS011;64449;50.016;19.954;2024-01-11T03:38:34;78.10;;;28.60;;
75810;SDS011;64449;50.016;19.954;2024-01-11T03:40:59;41.50;;;18.70;;
75810;SDS011;64449;50.016;19.954;2024-01-11T03:43:25;91.00;;;34.80;;
75810;SDS011;64449;50.016;19.954;2024-01-11T03:45:50;56.10;;;25.10;;
75810;SDS011;64449;50.016;19.954;2024-01-11T03:48:16;77.40;;;32.90;;
75810;SDS011;64449;50.016;19.954;2024-01-11T03:50:41;48.60;;;19.30;;
75810;SDS011;64449;50.016;19.954;2024-01-11T03:53:06;97.70;;;35.20;;
75810;SDS011;64449;50.016;19.954;2024-01-11T03:55:33;89.60;;;38.20;;
75810;SDS011;64449;50.016;19.954;2024-01-11T03:57:58;95.00;;;34.90;;
75810;SDS011;64449;50.016;19.954;2024-01-11T04:00:24;83.60;;;26.90;;
75810;SDS011;64449;50.016;19.954;2024-01-11T04:02:49;76.50;;;32.50;;
75810;SDS011;64449;50.016;19.954;2024-01-11T04:05:14;69.00;;;26.00;;
75810;SDS011;64449;50.016;19.954;2024-01-11T04:07:41;83.60;;;27.70;;
75810;SDS011;64449;50.016;19.954;2024-01-11T04:10:07;77.30;;;29.60;;
75810;SDS011;64449;50.016;19.954;2024-01-11T04:12:35;74.70;;;34.00;;
75810;SDS011;64449;50.016;19.954;2024-01-11T04:15:01;60.60;;;27.30;;
75810;SDS011;64449;50.016;19.954;2024-01-11T04:17:27;80.50;;;30.80;;
75810;SDS011;64449;50.016;19.954;2024-01-11T04:19:52;83.40;;;31.30;;
75810;SDS011;64449;50.016;19.954;2024-01-11T04:22:18;60.30;;;25.80;;
75810;SDS011;64449;50.016;19.954;2024-01-11T04:24:43;99.90;;;37.30;;
75810;SDS011;64449;50.016;19.954;2024-01-11T04:27:08;62.70;;;24.40;;
75810;SDS011;64449;50.016;19.954;2024-01-11T04:29:34;62.20;;;24.20;;
75810;SDS011;64449;50.016;19.954;2024-01-11T04:31:59;69.00;;;22.70;;
75810;SDS011;64449;50.016;19.954;2024-01-11T04:34:26;64.60;;;28.40;;
75810;SDS011;64449;50.016;19.954;2024-01-11T04:36:52;88.90;;;31.40;;
75810;SDS011;64449;50.016;19.954;2024-01-11T04:39:17;74.50;;;28.00;;
75810;SDS011;64449;50.016;19.954;2024-01-11T04:41:42;102.00;;;35.30;;
75810;SDS011;64449;50.016;19.954;2024-01-11T04:44:08;83.10;;;33.20;;
75810;SDS011;64449;50.016;19.954;2024-01-11T04:46:34;67.70;;;26.30;;
75810;SDS011;64449;50.016;19.954;2024-01-11T04:49:00;91.40;;;33.90;;
75810;SDS011;64449;50.016;19.954;2024-01-11T04:51:25;95.80;;;36.30;;
75810;SDS011;64449;50.016;19.954;2024-01-11T04:53:51;86.70;;;33.60;;
75810;SDS011;64449;50.016;19.954;2024-01-11T04:56:16;71.60;;;27.60;;
75810;SDS011;64449;50.016;19.954;2024-01-11T05:01:15;37.90;;;20.10;;
75810;SDS011;64449;50.016;19.954;2024-01-11T05:03:42;68.50;;;29.50;;
75810;SDS011;64449;50.016;19.954;2024-01-11T05:06:08;67.90;;;27.10;;
75810;SDS011;64449;50.016;19.954;2024-01-11T05:08:33;66.10;;;26.30;;
75810;SDS011;64449;50.016;19.954;2024-01-11T05:10:59;72.20;;;27.40;;
75810;SDS011;64449;50.016;19.954;2024-01-11T05:13:24;73.40;;;29.70;;
75810;SDS011;64449;50.016;19.954;2024-01-11T05:15:50;57.60;;;24.30;;
75810;SDS011;64449;50.016;19.954;2024-01-11T05:18:15;65.20;;;28.00;;
75810;SDS011;64449;50.016;19.954;2024-01-11T05:20:40;82.70;;;32.70;;
75810;SDS011;64449;50.016;19.954;2024-01-11T05:23:06;94.30;;;35.90;;
75810;SDS011;64449;50.016;19.954;2024-01-11T05:25:31;64.20;;;26.80;;
75810;SDS011;64449;50.016;19.954;2024-01-11T05:28:02;56.60;;;21.00;;
75810;SDS011;64449;50.016;19.954;2024-01-11T05:30:29;69.20;;;23.10;;
75810;SDS011;64449;50.016;19.954;2024-01-11T05:32:55;79.00;;;28.10;;
75810;SDS011;64449;50.016;19.954;2024-01-11T05:35:21;61.60;;;19.50;;
75810;SDS011;64449;50.016;19.954;2024-01-11T05:37:49;68.00;;;21.90;;
75810;SDS011;64449;50.016;19.954;2024-01-11T05:40:15;59.20;;;20.60;;
75810;SDS011;64449;50.016;19.954;2024-01-11T05:42:40;45.10;;;18.50;;
75810;SDS011;64449;50.016;19.954;2024-01-11T05:45:06;60.40;;;23.00;;
75810;SDS011;64449;50.016;19.954;2024-01-11T05:47:32;55.60;;;19.40;;
75810;SDS011;64449;50.016;19.954;2024-01-11T05:49:57;64.90;;;22.10;;
75810;SDS011;64449;50.016;19.954;2024-01-11T05:52:22;44.80;;;18.20;;
75810;SDS011;64449;50.016;19.954;2024-01-11T05:54:48;52.90;;;18.30;;
75810;SDS011;64449;50.016;19.954;2024-01-11T05:57:13;44.80;;;16.20;;
75810;SDS011;64449;50.016;19.954;2024-01-11T05:59:45;57.70;;;16.30;;
75810;SDS011;64449;50.016;19.954;2024-01-11T06:02:13;35.00;;;13.60;;
75810;SDS011;64449;50.016;19.954;2024-01-11T06:04:39;28.70;;;12.30;;
75810;SDS011;64449;50.016;19.954;2024-01-11T06:07:05;41.50;;;17.50;;
75810;SDS011;64449;50.016;19.954;2024-01-11T06:09:30;51.90;;;21.90;;
75810;SDS011;64449;50.016;19.954;2024-01-11T06:11:56;29.20;;;10.70;;
75810;SDS011;64449;50.016;19.954;2024-01-11T06:14:21;54.90;;;19.60;;
75810;SDS011;64449;50.016;19.954;2024-01-11T06:16:46;36.60;;;13.20;;
75810;SDS011;64449;50.016;19.954;2024-01-11T06:19:12;52.30;;;17.90;;
75810;SDS011;64449;50.016;19.954;2024-01-11T06:21:37;51.90;;;17.00;;
75810;SDS011;64449;50.016;19.954;2024-01-11T06:24:03;45.20;;;17.00;;
75810;SDS011;64449;50.016;19.954;2024-01-11T06:26:29;41.20;;;15.30;;
75810;SDS011;64449;50.016;19.954;2024-01-11T06:28:55;37.00;;;12.20;;
75810;SDS011;64449;50.016;19.954;2024-01-11T06:31:20;54.50;;;20.10;;
75810;SDS011;64449;50.016;19.954;2024-01-11T06:33:46;58.20;;;18.90;;
75810;SDS011;64449;50.016;19.954;2024-01-11T06:36:11;35.20;;;12.40;;
75810;SDS011;64449;50.016;19.954;2024-01-11T06:38:37;51.90;;;19.80;;
75810;SDS011;64449;50.016;19.954;2024-01-11T06:41:03;40.80;;;14.60;;
75810;SDS011;64449;50.016;19.954;2024-01-11T06:43:28;45.50;;;15.50;;
75810;SDS011;64449;50.016;19.954;2024-01-11T06:45:54;50.70;;;20.30;;
75810;SDS011;64449;50.016;19.954;2024-01-11T06:48:19;61.60;;;24.40;;
75810;SDS011;64449;50.016;19.954;2024-01-11T06:50:44;57.90;;;19.70;;
75810;SDS011;64449;50.016;19.954;2024-01-11T06:53:10;65.00;;;25.10;;
75810;SDS011;64449;50.016;19.954;2024-01-11T06:55:36;64.90;;;26.80;;
75810;SDS011;64449;50.016;19.954;2024-01-11T06:58:01;46.50;;;18.80;;
75810;SDS011;64449;50.016;19.954;2024-01-11T07:00:27;57.90;;;22.50;;
75810;SDS011;64449;50.016;19.954;2024-01-11T07:02:53;86.50;;;34.90;;
75810;SDS011;64449;50.016;19.954;2024-01-11T07:05:19;51.60;;;19.40;;
75810;SDS011;64449;50.016;19.954;2024-01-11T07:07:44;65.30;;;23.00;;
75810;SDS011;64449;50.016;19.954;2024-01-11T07:10:10;52.20;;;21.50;;
75810;SDS011;64449;50.016;19.954;2024-01-11T07:12:35;53.20;;;21.00;;
75810;SDS011;64449;50.016;19.954;2024-01-11T07:15:03;60.20;;;31.70;;
75810;SDS011;64449;50.016;19.954;2024-01-11T07:17:30;56.80;;;25.20;;
75810;SDS011;64449;50.016;19.954;2024-01-11T07:19:55;56.70;;;22.30;;
75810;SDS011;64449;50.016;19.954;2024-01-11T07:22:21;54.30;;;20.30;;
75810;SDS011;64449;50.016;19.954;2024-01-11T07:24:46;74.20;;;26.40;;
75810;SDS011;64449;50.016;19.954;2024-01-11T07:27:11;46.50;;;18.70;;
75810;SDS011;64449;50.016;19.954;2024-01-11T07:29:37;50.60;;;18.50;;
75810;SDS011;64449;50.016;19.954;2024-01-11T07:32:03;32.60;;;14.40;;
75810;SDS011;64449;50.016;19.954;2024-01-11T07:34:29;48.00;;;18.90;;
75810;SDS011;64449;50.016;19.954;2024-01-11T07:36:54;46.30;;;18.30;;
75810;SDS011;64449;50.016;19.954;2024-01-11T07:39:20;43.90;;;18.90;;
75810;SDS011;64449;50.016;19.954;2024-01-11T07:41:47;49.30;;;18.50;;
75810;SDS011;64449;50.016;19.954;2024-01-11T07:44:13;53.20;;;19.80;;
75810;SDS011;64449;50.016;19.954;2024-01-11T07:46:38;50.40;;;19.20;;
75810;SDS011;64449;50.016;19.954;2024-01-11T07:49:03;39.30;;;17.80;;
75810;SDS011;64449;50.016;19.954;2024-01-11T07:53:55;43.90;;;18.70;;
75810;SDS011;64449;50.016;19.954;2024-01-11T07:56:20;64.00;;;28.00;;
75810;SDS011;64449;50.016;19.954;2024-01-11T07:58:45;64.90;;;26.80;;
75810;SDS011;64449;50.016;19.954;2024-01-11T08:01:11;55.40;;;22.40;;
75810;SDS011;64449;50.016;19.954;2024-01-11T08:03:37;47.60;;;18.00;;
75810;SDS011;64449;50.016;19.954;2024-01-11T08:06:04;38.40;;;15.20;;
75810;SDS011;64449;50.016;19.954;2024-01-11T08:08:32;44.60;;;17.00;;
75810;SDS011;64449;50.016;19.954;2024-01-11T08:10:59;42.80;;;17.30;;
75810;SDS011;64449;50.016;19.954;2024-01-11T08:13:24;57.10;;;22.40;;
75810;SDS011;64449;50.016;19.954;2024-01-11T08:15:49;42.70;;;19.40;;
75810;SDS011;64449;50.016;19.954;2024-01-11T08:18:15;58.10;;;20.90;;
75810;SDS011;64449;50.016;19.954;2024-01-11T08:20:43;49.70;;;19.40;;
75810;SDS011;64449;50.016;19.954;2024-01-11T08:23:09;52.20;;;20.30;;
75810;SDS011;64449;50.016;19.954;2024-01-11T08:25:35;55.20;;;23.60;;
75810;SDS011;64449;50.016;19.954;2024-01-11T08:28:00;38.30;;;17.40;;
75810;SDS011;64449;50.016;19.954;2024-01-11T08:30:26;48.90;;;19.30;;
75810;SDS011;64449;50.016;19.954;2024-01-11T08:32:51;61.10;;;25.70;;
75810;SDS011;64449;50.016;19.954;2024-01-11T08:35:16;56.40;;;21.20;;
75810;SDS011;64449;50.016;19.954;2024-01-11T08:37:42;45.00;;;20.50;;
75810;SDS011;64449;50.016;19.954;2024-01-11T08:40:07;44.50;;;18.20;;
75810;SDS011;64449;50.016;19.954;2024-01-11T08:42:34;37.30;;;16.40;;
75810;SDS011;64449;50.016;19.954;2024-01-11T08:44:59;46.40;;;17.80;;
75810;SDS011;64449;50.016;19.954;2024-01-11T08:47:31;39.40;;;15.90;;
75810;SDS011;64449;50.016;19.954;2024-01-11T08:49:57;39.60;;;15.50;;
75810;SDS011;64449;50.016;19.954;2024-01-11T08:52:22;35.00;;;15.20;;
75810;SDS011;64449;50.016;19.954;2024-01-11T08:54:47;51.00;;;19.90;;
75810;SDS011;64449;50.016;19.954;2024-01-11T08:57:14;42.00;;;16.80;;
75810;SDS011;64449;50.016;19.954;2024-01-11T09:02:06;33.80;;;13.60;;
75810;SDS011;64449;50.016;19.954;2024-01-11T09:04:32;36.20;;;12.20;;
75810;SDS011;64449;50.016;19.954;2024-01-11T09:06:58;45.10;;;17.80;;
75810;SDS011;64449;50.016;19.954;2024-01-11T09:09:24;41.10;;;15.30;;
75810;SDS011;64449;50.016;19.954;2024-01-11T09:11:50;39.40;;;16.90;;
75810;SDS011;64449;50.016;19.954;2024-01-11T09:14:15;48.40;;;16.40;;
75810;SDS011;64449;50.016;19.954;2024-01-11T09:16:41;35.20;;;14.10;;
75810;SDS011;64449;50.016;19.954;2024-01-11T09:19:07;39.80;;;15.70;;
75810;SDS011;64449;50.016;19.954;2024-01-11T09:21:32;34.00;;;14.50;;
75810;SDS011;64449;50.016;19.954;2024-01-11T09:23:57;36.00;;;14.80;;
75810;SDS011;64449;50.016;19.954;2024-01-11T09:26:23;37.70;;;14.90;;
75810;SDS011;64449;50.016;19.954;2024-01-11T09:28:48;47.10;;;17.10;;
75810;SDS011;64449;50.016;19.954;2024-01-11T09:31:14;34.80;;;14.70;;
75810;SDS011;64449;50.016;19.954;2024-01-11T09:33:39;36.50;;;13.60;;
75810;SDS011;64449;50.016;19.954;2024-01-11T09:36:07;36.60;;;15.60;;
75810;SDS011;64449;50.016;19.954;2024-01-11T09:38:33;51.60;;;18.50;;
75810;SDS011;64449;50.016;19.954;2024-01-11T09:41:06;43.70;;;17.90;;
75810;SDS011;64449;50.016;19.954;2024-01-11T09:43:33;34.70;;;13.80;;
75810;SDS011;64449;50.016;19.954;2024-01-11T09:46:00;35.90;;;13.80;;
75810;SDS011;64449;50.016;19.954;2024-01-11T09:48:29;42.20;;;18.20;;
75810;SDS011;64449;50.016;19.954;2024-01-11T09:50:57;36.90;;;16.60;;
75810;SDS011;64449;50.016;19.954;2024-01-11T09:53:25;31.40;;;14.20;;
75810;SDS011;64449;50.016;19.954;2024-01-11T09:55:52;37.30;;;16.70;;
75810;SDS011;64449;50.016;19.954;2024-01-11T09:58:19;29.50;;;13.30;;
75810;SDS011;64449;50.016;19.954;2024-01-11T10:00:46;42.10;;;15.10;;
75810;SDS011;64449;50.016;19.954;2024-01-11T10:03:15;29.40;;;11.70;;
75810;SDS011;64449;50.016;19.954;2024-01-11T10:08:06;30.80;;;13.50;;
75810;SDS011;64449;50.016;19.954;2024-01-11T10:10:33;25.40;;;11.60;;
75810;SDS011;64449;50.016;19.954;2024-01-11T10:12:58;24.40;;;9.40;;
75810;SDS011;64449;50.016;19.954;2024-01-11T10:17:49;15.50;;;6.70;;
75810;SDS011;64449;50.016;19.954;2024-01-11T10:20:15;24.60;;;8.80;;
75810;SDS011;64449;50.016;19.954;2024-01-11T10:22:42;22.40;;;7.90;;
75810;SDS011;64449;50.016;19.954;2024-01-11T10:25:09;23.40;;;8.00;;
75810;SDS011;64449;50.016;19.954;2024-01-11T10:27:42;25.20;;;9.30;;
75810;SDS011;64449;50.016;19.954;2024-01-11T10:30:10;18.30;;;8.30;;
75810;SDS011;64449;50.016;19.954;2024-01-11T10:32:38;19.80;;;8.20;;
75810;SDS011;64449;50.016;19.954;2024-01-11T10:35:04;20.90;;;8.80;;
75810;SDS011;64449;50.016;19.954;2024-01-11T10:37:31;18.20;;;7.90;;
75810;SDS011;64449;50.016;19.954;2024-01-11T10:40:04;20.80;;;8.40;;
75810;SDS011;64449;50.016;19.954;2024-01-11T10:42:43;19.60;;;7.40;;
75810;SDS011;64449;50.016;19.954;2024-01-11T10:45:17;20.60;;;8.60;;
75810;SDS011;64449;50.016;19.954;2024-01-11T10:47:56;17.20;;;6.90;;
75810;SDS011;64449;50.016;19.954;2024-01-11T10:50:36;19.00;;;7.70;;
75810;SDS011;64449;50.016;19.954;2024-01-11T10:55:53;17.90;;;7.40;;
75810;SDS011;64449;50.016;19.954;2024-01-11T10:58:24;15.50;;;6.70;;
75810;SDS011;64449;50.016;19.954;2024-01-11T11:00:51;16.20;;;5.90;;
75810;SDS011;64449;50.016;19.954;2024-01-11T11:03:19;14.40;;;5.20;;
75810;SDS011;64449;50.016;19.954;2024-01-11T11:05:47;12.80;;;5.20;;
75810;SDS011;64449;50.016;19.954;2024-01-11T11:08:15;13.00;;;4.90;;
75810;SDS011;64449;50.016;19.954;2024-01-11T11:10:43;9.40;;;4.70;;
75810;SDS011;64449;50.016;19.954;2024-01-11T11:13:13;12.70;;;4.80;;
75810;SDS011;64449;50.016;19.954;2024-01-11T11:15:41;13.30;;;4.80;;
75810;SDS011;64449;50.016;19.954;2024-01-11T11:18:11;16.50;;;5.30;;
75810;SDS011;64449;50.016;19.954;2024-01-11T11:20:38;12.70;;;5.00;;
75810;SDS011;64449;50.016;19.954;2024-01-11T11:23:07;11.00;;;4.20;;
75810;SDS011;64449;50.016;19.954;2024-01-11T11:25:37;12.60;;;4.90;;
75810;SDS011;64449;50.016;19.954;2024-01-11T11:28:05;10.20;;;4.20;;
75810;SDS011;64449;50.016;19.954;2024-01-11T11:30:36;14.70;;;5.30;;
75810;SDS011;64449;50.016;19.954;2024-01-11T11:33:18;11.90;;;4.90;;
75810;SDS011;64449;50.016;19.954;2024-01-11T11:35:49;12.10;;;4.30;;
75810;SDS011;64449;50.016;19.954;2024-01-11T11:38:18;14.40;;;5.10;;
75810;SDS011;64449;50.016;19.954;2024-01-11T11:40:46;11.80;;;4.40;;
75810;SDS011;64449;50.016;19.954;2024-01-11T11:43:15;13.40;;;4.30;;
75810;SDS011;64449;50.016;19.954;2024-01-11T11:45:42;10.10;;;4.30;;
75810;SDS011;64449;50.016;19.954;2024-01-11T11:51:07;8.60;;;3.40;;
75810;SDS011;64449;50.016;19.954;2024-01-11T11:53:34;10.90;;;4.20;;
75810;SDS011;64449;50.016;19.954;2024-01-11T11:56:00;13.00;;;5.30;;
75810;SDS011;64449;50.016;19.954;2024-01-11T11:58:29;12.90;;;4.70;;
75810;SDS011;64449;50.016;19.954;2024-01-11T12:00:56;10.80;;;4.40;;
75810;SDS011;64449;50.016;19.954;2024-01-11T12:03:33;13.60;;;5.10;;
75810;SDS011;64449;50.016;19.954;2024-01-11T12:06:06;12.70;;;5.40;;
75810;SDS011;64449;50.016;19.954;2024-01-11T12:08:36;15.30;;;5.20;;
75810;SDS011;64449;50.016;19.954;2024-01-11T12:11:03;11.70;;;5.90;;
75810;SDS011;64449;50.016;19.954;2024-01-11T12:13:29;12.10;;;4.60;;
75810;SDS011;64449;50.016;19.954;2024-01-11T12:15:56;12.00;;;4.30;;
75810;SDS011;64449;50.016;19.954;2024-01-11T12:18:22;12.60;;;6.00;;
75810;SDS011;64449;50.016;19.954;2024-01-11T12:23:13;12.00;;;4.80;;
75810;SDS011;64449;50.016;19.954;2024-01-11T12:25:41;13.00;;;4.70;;
75810;SDS011;64449;50.016;19.954;2024-01-11T12:28:07;13.30;;;5.00;;
75810;SDS011;64449;50.016;19.954;2024-01-11T12:32:58;11.40;;;3.80;;
75810;SDS011;64449;50.016;19.954;2024-01-11T12:35:28;11.40;;;4.70;;
75810;SDS011;64449;50.016;19.954;2024-01-11T12:40:23;13.30;;;5.90;;
75810;SDS011;64449;50.016;19.954;2024-01-11T12:42:48;12.40;;;5.20;;
75810;SDS011;64449;50.016;19.954;2024-01-11T12:45:18;19.60;;;7.70;;
75810;SDS011;64449;50.016;19.954;2024-01-11T12:47:44;10.00;;;4.30;;
75810;SDS011;64449;50.016;19.954;2024-01-11T12:50:11;15.20;;;6.50;;
75810;SDS011;64449;50.016;19.954;2024-01-11T12:52:39;12.80;;;5.10;;
75810;SDS011;64449;50.016;19.954;2024-01-11T12:55:07;12.10;;;4.70;;
75810;SDS011;64449;50.016;19.954;2024-01-11T12:57:34;18.10;;;7.00;;
75810;SDS011;64449;50.016;19.954;2024-01-11T13:02:39;13.30;;;4.80;;
75810;SDS011;64449;50.016;19.954;2024-01-11T13:05:11;13.40;;;4.60;;
75810;SDS011;64449;50.016;19.954;2024-01-11T13:07:37;12.40;;;5.10;;
75810;SDS011;64449;50.016;19.954;2024-01-11T13:10:02;13.70;;;5.00;;
75810;SDS011;64449;50.016;19.954;2024-01-11T13:12:29;9.80;;;5.30;;
75810;SDS011;64449;50.016;19.954;2024-01-11T13:14:55;12.20;;;4.60;;
75810;SDS011;64449;50.016;19.954;2024-01-11T13:17:21;15.00;;;4.90;;
75810;SDS011;64449;50.016;19.954;2024-01-11T13:19:46;14.40;;;5.00;;
75810;SDS011;64449;50.016;19.954;2024-01-11T13:24:38;12.20;;;4.80;;
75810;SDS011;64449;50.016;19.954;2024-01-11T13:27:03;12.00;;;4.30;;
75810;SDS011;64449;50.016;19.954;2024-01-11T13:29:29;12.80;;;4.80;;
75810;SDS011;64449;50.016;19.954;2024-01-11T13:31:55;11.80;;;5.60;;
75810;SDS011;64449;50.016;19.954;2024-01-11T13:34:20;15.90;;;6.40;;
75810;SDS011;64449;50.016;19.954;2024-01-11T13:36:45;13.30;;;6.10;;
75810;SDS011;64449;50.016;19.954;2024-01-11T13:39:11;14.90;;;6.00;;
75810;SDS011;64449;50.016;19.954;2024-01-11T13:41:36;19.20;;;6.50;;
75810;SDS011;64449;50.016;19.954;2024-01-11T13:44:02;17.10;;;7.20;;
75810;SDS011;64449;50.016;19.954;2024-01-11T13:46:30;20.80;;;7.50;;
75810;SDS011;64449;50.016;19.954;2024-01-11T13:48:56;16.30;;;6.30;;
75810;SDS011;64449;50.016;19.954;2024-01-11T13:51:21;17.70;;;8.00;;
75810;SDS011;64449;50.016;19.954;2024-01-11T13:53:46;14.60;;;6.30;;
75810;SDS011;64449;50.016;19.954;2024-01-11T13:56:12;16.70;;;7.90;;
75810;SDS011;64449;50.016;19.954;2024-01-11T13:58:37;16.00;;;9.40;;
75810;SDS011;64449;50.016;19.954;2024-01-11T14:01:03;13.20;;;6.90;;
75810;SDS011;64449;50.016;19.954;2024-01-11T14:03:29;17.10;;;8.40;;
75810;SDS011;64449;50.016;19.954;2024-01-11T14:05:54;19.20;;;8.10;;
75810;SDS011;64449;50.016;19.954;2024-01-11T14:08:20;17.50;;;6.90;;
75810;SDS011;64449;50.016;19.954;2024-01-11T14:10:45;19.30;;;7.60;;
75810;SDS011;64449;50.016;19.954;2024-01-11T14:13:11;18.30;;;7.80;;
75810;SDS011;64449;50.016;19.954;2024-01-11T14:15:36;22.70;;;8.90;;
75810;SDS011;64449;50.016;19.954;2024-01-11T14:18:02;17.30;;;7.50;;
75810;SDS011;64449;50.016;19.954;2024-01-11T14:20:30;23.80;;;8.40;;
75810;SDS011;64449;50.016;19.954;2024-01-11T14:22:56;19.80;;;7.70;;
75810;SDS011;64449;50.016;19.954;2024-01-11T14:25:22;18.30;;;7.20;;
75810;SDS011;64449;50.016;19.954;2024-01-11T14:27:50;18.80;;;7.30;;
75810;SDS011;64449;50.016;19.954;2024-01-11T14:30:15;15.40;;;6.90;;
75810;SDS011;64449;50.016;19.954;2024-01-11T14:32:41;19.90;;;6.90;;
75810;SDS011;64449;50.016;19.954;2024-01-11T14:35:07;22.80;;;9.50;;
75810;SDS011;64449;50.016;19.954;2024-01-11T14:37:35;20.90;;;7.90;;
75810;SDS011;64449;50.016;19.954;2024-01-11T14:40:02;18.10;;;8.00;;